createdAt,value
2018-07-23T00:00:12.834Z,63.00
2018-07-23T00:05:10.120Z,62.90
2018-07-23T00:07:38.876Z,62.80
2018-07-23T00:10:07.652Z,63.60
2018-07-23T00:12:36.499Z,63.90
2018-07-23T00:15:05.268Z,64.10
2018-07-23T00:20:02.484Z,64.90
2018-07-23T00:22:31.241Z,65.20
2018-07-23T00:24:59.993Z,65.50
2018-07-23T00:27:28.721Z,65.20
2018-07-23T00:29:57.630Z,65.20
2018-07-23T00:32:26.378Z,65.60
2018-07-23T00:34:55.171Z,65.60
2018-07-23T00:37:23.988Z,65.60
2018-07-23T00:39:52.758Z,66.10
2018-07-23T00:42:21.624Z,66.30
2018-07-23T00:44:50.436Z,66.40
2018-07-23T00:47:19.427Z,66.30
2018-07-23T00:49:48.214Z,66.50
2018-07-23T00:52:17.066Z,66.20
2018-07-23T00:54:45.930Z,66.30
2018-07-23T00:57:15.180Z,66.30
2018-07-23T00:59:43.913Z,66.60
2018-07-23T01:02:12.648Z,66.90
2018-07-23T01:04:41.486Z,66.60
2018-07-23T01:07:10.273Z,67.40
2018-07-23T01:09:39.006Z,66.80
2018-07-23T01:12:07.799Z,67.00
2018-07-23T01:14:37.574Z,67.20
2018-07-23T01:17:06.320Z,67.30
2018-07-23T01:19:35.613Z,68.20
2018-07-23T01:24:32.933Z,67.80
2018-07-23T01:27:01.659Z,67.90
2018-07-23T01:29:30.479Z,67.60
2018-07-23T01:31:59.229Z,67.70
2018-07-23T01:34:28.639Z,67.90
2018-07-23T01:36:57.407Z,68.10
2018-07-23T01:39:26.183Z,68.40
2018-07-23T01:41:54.938Z,68.40
2018-07-23T01:44:23.668Z,68.40
2018-07-23T01:46:52.414Z,68.60
2018-07-23T01:49:21.219Z,68.60
2018-07-23T01:51:50.058Z,68.80
2018-07-23T01:54:18.879Z,68.60
2018-07-23T01:56:47.625Z,68.60
2018-07-23T01:59:16.355Z,68.70
2018-07-23T02:01:45.107Z,68.60
2018-07-23T02:04:13.880Z,68.40
2018-07-23T02:06:42.630Z,68.20
2018-07-23T02:09:12.835Z,68.00
2018-07-23T02:14:10.230Z,68.00
2018-07-23T02:16:38.975Z,68.70
2018-07-23T02:19:07.855Z,68.10
2018-07-23T02:21:37.067Z,68.00
2018-07-23T02:24:06.566Z,68.00
2018-07-23T02:26:35.343Z,68.00
2018-07-23T02:29:04.110Z,68.30
2018-07-23T02:31:32.864Z,68.30
2018-07-23T02:34:01.578Z,68.50
2018-07-23T02:36:30.550Z,68.80
2018-07-23T02:38:59.346Z,68.80
2018-07-23T02:41:28.115Z,68.80
2018-07-23T02:43:56.884Z,68.70
2018-07-23T02:46:25.794Z,69.10
2018-07-23T02:51:23.020Z,69.30
2018-07-23T02:53:51.768Z,69.60
2018-07-23T02:56:20.584Z,69.80
2018-07-23T02:58:49.395Z,69.80
2018-07-23T03:01:18.207Z,70.00
2018-07-23T03:06:15.526Z,70.50
2018-07-23T03:08:44.365Z,70.40
2018-07-23T03:13:41.626Z,71.00
2018-07-23T03:16:10.455Z,70.60
2018-07-23T03:18:39.283Z,70.80
2018-07-23T03:21:08.086Z,70.90
2018-07-23T03:23:36.871Z,71.00
2018-07-23T03:26:05.704Z,71.10
2018-07-23T03:28:34.483Z,71.10
2018-07-23T03:33:31.866Z,71.20
2018-07-23T03:36:00.672Z,71.20
2018-07-23T03:38:29.394Z,71.10
2018-07-23T03:40:58.252Z,71.10
2018-07-23T03:43:27.108Z,70.80
2018-07-23T03:45:55.875Z,70.50
2018-07-23T03:48:24.683Z,70.70
2018-07-23T03:55:50.403Z,70.90
2018-07-23T03:58:19.196Z,70.90
2018-07-23T04:00:48.029Z,70.90
2018-07-23T04:03:16.762Z,70.60
2018-07-23T04:05:45.593Z,70.50
2018-07-23T04:10:42.929Z,70.30
2018-07-23T04:15:40.171Z,70.00
2018-07-23T04:18:09.062Z,69.80
2018-07-23T04:20:37.862Z,70.10
2018-07-23T04:23:07.031Z,70.20
2018-07-23T04:25:35.823Z,70.20
2018-07-23T04:28:04.631Z,70.20
2018-07-23T04:30:33.415Z,70.00
2018-07-23T04:33:02.192Z,70.40
2018-07-23T04:35:30.950Z,69.30
2018-07-23T04:37:59.829Z,69.20
2018-07-23T04:40:28.586Z,69.30
2018-07-23T04:42:57.366Z,69.10
2018-07-23T04:45:26.127Z,69.10
2018-07-23T04:50:23.422Z,68.50
2018-07-23T04:52:52.383Z,68.20
2018-07-23T04:55:21.206Z,68.30
2018-07-23T04:57:49.958Z,68.30
2018-07-23T05:02:47.172Z,68.30
2018-07-23T05:05:15.968Z,68.40
2018-07-23T05:07:44.687Z,68.50
2018-07-23T05:10:13.482Z,68.60
2018-07-23T05:12:42.234Z,68.80
2018-07-23T05:15:11.004Z,68.60
2018-07-23T05:17:39.899Z,68.50
2018-07-23T05:20:08.711Z,68.30
2018-07-23T05:22:37.543Z,68.40
2018-07-23T05:27:34.902Z,68.30
2018-07-23T05:30:03.652Z,68.30
2018-07-23T05:32:32.779Z,68.40
2018-07-23T05:35:01.592Z,68.60
2018-07-23T05:39:58.899Z,68.50
2018-07-23T05:42:27.672Z,68.60
2018-07-23T05:44:56.420Z,68.80
2018-07-23T05:47:25.191Z,68.80
2018-07-23T05:49:53.947Z,68.80
2018-07-23T05:52:23.054Z,68.80
2018-07-23T05:54:51.881Z,69.00
2018-07-23T05:57:20.687Z,69.10
2018-07-23T06:02:18.093Z,69.10
2018-07-23T06:04:46.811Z,69.80
2018-07-23T06:07:15.632Z,68.90
2018-07-23T06:09:44.398Z,69.10
2018-07-23T06:12:13.223Z,69.10
2018-07-23T06:14:42.003Z,69.10
2018-07-23T06:17:11.074Z,69.10
2018-07-23T06:19:39.791Z,69.00
2018-07-23T06:24:36.986Z,68.70
2018-07-23T06:27:05.775Z,68.80
2018-07-23T06:29:34.507Z,68.90
2018-07-23T06:32:03.282Z,68.80
2018-07-23T06:34:32.027Z,68.70
2018-07-23T06:37:00.866Z,68.70
2018-07-23T06:39:29.638Z,68.60
2018-07-23T06:41:58.368Z,68.60
2018-07-23T06:44:27.119Z,68.40
2018-07-23T06:46:55.938Z,68.60
2018-07-23T06:49:24.706Z,68.20
2018-07-23T06:51:53.455Z,68.40
2018-07-23T06:54:22.192Z,68.60
2018-07-23T06:56:50.962Z,68.70
2018-07-23T06:59:19.877Z,68.40
2018-07-23T07:01:48.742Z,68.50
2018-07-23T07:04:17.585Z,68.40
2018-07-23T07:09:14.936Z,68.00
2018-07-23T07:11:43.848Z,68.10
2018-07-23T07:16:41.141Z,68.10
2018-07-23T07:19:09.935Z,67.20
2018-07-23T07:21:38.727Z,67.20
2018-07-23T07:24:07.896Z,66.60
2018-07-23T07:29:05.260Z,66.00
2018-07-23T07:31:34.292Z,65.30
2018-07-23T07:34:03.078Z,65.40
2018-07-23T07:36:31.815Z,64.40
2018-07-23T07:39:00.719Z,64.10
2018-07-23T07:41:29.540Z,62.60
2018-07-23T07:43:58.371Z,62.10
2018-07-23T07:46:27.385Z,61.30
2018-07-23T07:48:56.059Z,60.80
2018-07-23T07:51:24.917Z,60.20
2018-07-23T07:53:53.672Z,60.70
2018-07-23T07:58:50.979Z,60.70
2018-07-23T08:01:20.372Z,60.30
2018-07-23T08:03:49.438Z,61.00
2018-07-23T08:08:46.862Z,61.70
2018-07-23T08:11:15.680Z,62.00
2018-07-23T08:13:44.538Z,60.90
2018-07-23T08:16:13.574Z,59.60
2018-07-23T08:18:42.355Z,58.00
2018-07-23T08:21:11.167Z,58.20
2018-07-23T08:23:40.507Z,57.80
2018-07-23T08:26:09.303Z,56.90
2018-07-23T08:28:38.202Z,57.50
2018-07-23T08:31:07.101Z,57.70
2018-07-23T08:33:35.855Z,57.80
2018-07-23T08:36:04.598Z,57.10
2018-07-23T08:38:33.327Z,56.80
2018-07-23T08:41:02.093Z,57.10
2018-07-23T08:45:59.308Z,57.30
2018-07-23T08:48:28.032Z,57.00
2018-07-23T08:50:56.735Z,57.10
2018-07-23T08:55:53.896Z,57.50
2018-07-23T08:58:22.652Z,57.90
2018-07-23T09:00:51.388Z,57.30
2018-07-23T09:05:48.560Z,57.70
2018-07-23T09:08:17.276Z,57.20
2018-07-23T09:10:46.083Z,57.70
2018-07-23T09:13:14.815Z,57.90
2018-07-23T09:15:43.550Z,58.20
2018-07-23T09:18:12.389Z,58.10
2018-07-23T09:23:09.597Z,57.10
2018-07-23T09:25:43.822Z,56.60
2018-07-23T09:28:12.601Z,56.70
2018-07-23T09:30:46.767Z,56.50
2018-07-23T09:33:15.497Z,56.20
2018-07-23T09:35:44.264Z,55.00
2018-07-23T09:40:41.929Z,54.60
2018-07-23T09:45:39.388Z,54.00
2018-07-23T09:48:08.107Z,53.50
2018-07-23T09:53:05.351Z,53.80
2018-07-23T09:55:34.610Z,53.90
2018-07-23T09:58:03.379Z,52.90
2018-07-23T10:00:37.588Z,52.20
2018-07-23T10:03:06.348Z,52.40
2018-07-23T10:05:35.089Z,53.20
2018-07-23T10:08:03.916Z,53.20
2018-07-23T10:10:32.738Z,54.10
2018-07-23T10:13:01.499Z,54.20
2018-07-23T10:15:30.409Z,54.50
2018-07-23T10:17:59.199Z,54.40
2018-07-23T10:22:56.573Z,55.10
2018-07-23T10:25:25.445Z,54.90
2018-07-23T10:27:55.207Z,55.70
2018-07-23T10:30:24.112Z,55.70
2018-07-23T10:32:52.879Z,55.70
2018-07-23T10:35:21.795Z,55.20
2018-07-23T10:37:50.556Z,54.90
2018-07-23T10:40:19.452Z,55.00
2018-07-23T10:42:48.205Z,54.50
2018-07-23T10:47:45.471Z,55.20
2018-07-23T10:50:14.212Z,55.20
2018-07-23T10:52:43.066Z,54.90
2018-07-23T10:55:11.830Z,54.60
2018-07-23T10:57:40.780Z,53.70
2018-07-23T11:02:38.690Z,53.40
2018-07-23T11:05:07.744Z,53.70
2018-07-23T11:07:36.459Z,53.50
2018-07-23T11:10:06.390Z,54.50
2018-07-23T11:12:35.531Z,54.90
2018-07-23T11:15:06.014Z,52.80
2018-07-23T11:17:35.466Z,53.40
2018-07-23T11:20:04.863Z,52.80
2018-07-23T11:22:33.729Z,52.60
2018-07-23T11:25:38.220Z,52.30
2018-07-23T11:27:31.376Z,52.60
2018-07-23T11:30:00.226Z,53.00
2018-07-23T11:34:57.626Z,52.20
2018-07-23T11:37:26.591Z,52.10
2018-07-23T11:39:55.423Z,52.00
2018-07-23T11:42:24.194Z,51.90
2018-07-23T11:44:53.097Z,51.90
2018-07-23T11:47:21.844Z,51.70
2018-07-23T11:52:19.487Z,51.70
2018-07-23T11:54:48.351Z,51.80
2018-07-23T11:57:17.130Z,50.40
2018-07-23T11:59:45.873Z,51.10
2018-07-23T12:02:14.662Z,50.90
2018-07-23T12:04:43.555Z,51.40
2018-07-23T12:07:12.264Z,51.10
2018-07-23T12:09:41.156Z,51.40
2018-07-23T12:12:09.923Z,51.70
2018-07-23T12:14:38.841Z,51.30
2018-07-23T12:19:36.162Z,50.90
2018-07-23T12:22:05.076Z,51.80
2018-07-23T12:24:50.335Z,51.50
2018-07-23T12:27:19.093Z,51.20
2018-07-23T12:29:47.868Z,51.30
2018-07-23T12:32:16.694Z,51.10
2018-07-23T12:34:45.466Z,51.30
2018-07-23T12:37:14.237Z,51.30
2018-07-23T12:39:43.093Z,51.20
2018-07-23T12:42:11.824Z,51.50
2018-07-23T12:44:40.560Z,51.10
2018-07-23T12:47:09.367Z,51.20
2018-07-23T12:49:38.136Z,51.50
2018-07-23T12:52:07.048Z,51.30
2018-07-23T12:57:04.290Z,51.40
2018-07-23T12:59:33.482Z,51.10
2018-07-23T13:02:02.208Z,51.30
2018-07-23T13:06:59.544Z,51.50
2018-07-23T13:09:28.366Z,51.00
2018-07-23T13:11:57.148Z,51.50
2018-07-23T13:14:25.933Z,51.40
2018-07-23T13:16:54.712Z,51.40
2018-07-23T13:19:23.457Z,51.20
2018-07-23T13:21:52.211Z,50.70
2018-07-23T13:24:21.043Z,50.70
2018-07-23T13:26:49.790Z,50.50
2018-07-23T13:34:15.560Z,50.10
2018-07-23T13:36:44.451Z,50.00
2018-07-23T13:39:13.891Z,49.50
2018-07-23T13:41:42.662Z,49.20
2018-07-23T13:44:12.270Z,49.20
2018-07-23T13:46:41.034Z,49.00
2018-07-23T13:49:09.801Z,49.50
2018-07-23T13:51:38.641Z,49.50
2018-07-23T13:54:07.596Z,49.60
2018-07-23T13:56:36.358Z,48.80
2018-07-23T13:59:05.183Z,48.90
2018-07-23T14:01:33.936Z,48.50
2018-07-23T14:04:02.683Z,48.00
2018-07-23T14:06:31.500Z,46.90
2018-07-23T14:11:28.627Z,47.30
2018-07-23T14:13:57.375Z,46.60
2018-07-23T14:16:26.183Z,47.10
2018-07-23T14:21:23.387Z,47.10
2018-07-23T14:23:52.165Z,46.30
2018-07-23T14:26:20.944Z,45.40
2018-07-23T14:28:49.828Z,45.80
2018-07-23T14:31:18.670Z,46.80
2018-07-23T14:33:47.459Z,47.40
2018-07-23T14:36:16.306Z,46.80
2018-07-23T14:38:45.057Z,46.10
2018-07-23T14:41:13.798Z,46.50
2018-07-23T14:43:42.660Z,46.70
2018-07-23T14:51:08.327Z,47.40
2018-07-23T14:53:37.094Z,47.30
2018-07-23T14:56:12.478Z,47.30
2018-07-23T14:58:41.239Z,47.10
2018-07-23T15:01:09.963Z,47.50
2018-07-23T15:03:38.705Z,46.40
2018-07-23T15:06:07.491Z,45.10
2018-07-23T15:08:36.226Z,45.60
2018-07-23T15:11:05.071Z,46.00
2018-07-23T15:13:33.935Z,46.20
2018-07-23T15:16:02.733Z,46.70
2018-07-23T15:18:31.454Z,47.50
2018-07-23T15:21:00.227Z,46.90
2018-07-23T15:23:28.971Z,46.50
2018-07-23T15:25:57.912Z,46.40
2018-07-23T15:28:26.900Z,46.40
2018-07-23T15:30:55.694Z,46.60
2018-07-23T15:33:24.453Z,47.30
2018-07-23T15:35:53.193Z,46.40
2018-07-23T15:38:22.164Z,45.30
2018-07-23T15:43:19.382Z,46.30
2018-07-23T15:45:48.291Z,46.80
2018-07-23T15:48:17.234Z,47.20
2018-07-23T15:50:45.960Z,47.10
2018-07-23T15:53:14.699Z,47.20
2018-07-23T15:55:43.759Z,47.60
2018-07-23T15:58:12.513Z,47.80
2018-07-23T16:00:41.337Z,47.60
2018-07-23T16:03:10.369Z,46.90
2018-07-23T16:05:39.085Z,47.00
2018-07-23T16:08:07.823Z,47.00
2018-07-23T16:13:05.309Z,47.00
2018-07-23T16:20:31.215Z,46.90
2018-07-23T16:23:00.020Z,46.60
2018-07-23T16:25:28.728Z,46.40
2018-07-23T16:27:57.456Z,46.50
2018-07-23T16:30:26.271Z,46.60
2018-07-23T16:32:55.034Z,46.70
2018-07-23T16:35:23.793Z,46.90
2018-07-23T16:40:21.025Z,46.60
2018-07-23T16:42:49.729Z,46.60
2018-07-23T16:45:18.475Z,46.30
2018-07-23T16:47:47.275Z,45.60
2018-07-23T16:50:16.039Z,45.90
2018-07-23T16:52:44.774Z,45.60
2018-07-23T16:55:13.520Z,45.70
2018-07-23T16:57:42.256Z,45.80
2018-07-23T17:00:10.997Z,45.40
2018-07-23T17:02:39.744Z,45.60
2018-07-23T17:07:36.919Z,45.30
2018-07-23T17:10:05.735Z,45.20
2018-07-23T17:12:34.454Z,45.10
2018-07-23T17:15:03.263Z,45.30
2018-07-23T17:17:31.994Z,45.40
2018-07-23T17:20:07.530Z,44.90
2018-07-23T17:22:36.280Z,44.10
2018-07-23T17:25:05.048Z,44.00
2018-07-23T17:27:33.797Z,44.10
2018-07-23T17:30:02.588Z,44.10
2018-07-23T17:32:31.341Z,44.40
2018-07-23T17:37:28.531Z,45.00
2018-07-23T17:39:57.269Z,44.30
2018-07-23T17:42:25.974Z,44.60
2018-07-23T17:44:54.858Z,44.70
2018-07-23T17:49:51.993Z,45.10
2018-07-23T17:52:20.720Z,44.80
2018-07-23T17:54:49.489Z,44.90
2018-07-23T17:57:18.451Z,44.90
2018-07-23T17:59:47.226Z,45.00
2018-07-23T18:02:15.946Z,45.10
2018-07-23T18:04:44.702Z,44.80
2018-07-23T18:07:13.427Z,45.00
2018-07-23T18:09:42.163Z,45.00
2018-07-23T18:14:39.334Z,45.00
2018-07-23T18:19:36.525Z,44.60
2018-07-23T18:22:05.323Z,44.80
2018-07-23T18:24:34.075Z,45.00
2018-07-23T18:29:31.266Z,45.10
2018-07-23T18:32:00.032Z,45.10
2018-07-23T18:34:28.766Z,45.20
2018-07-23T18:36:57.520Z,45.20
2018-07-23T18:41:54.742Z,45.40
2018-07-23T18:44:23.470Z,45.30
2018-07-23T18:49:33.422Z,45.40
2018-07-23T18:52:02.334Z,45.60
2018-07-23T18:54:32.042Z,46.10
2018-07-23T18:57:02.050Z,45.70
2018-07-23T19:02:00.036Z,45.70
2018-07-23T19:04:28.784Z,45.80
2018-07-23T19:06:57.613Z,45.90
2018-07-23T19:09:27.135Z,45.90
2018-07-23T19:11:56.848Z,46.10
2018-07-23T19:14:25.585Z,46.20
2018-07-23T19:16:55.375Z,46.30
2018-07-23T19:19:24.232Z,46.30
2018-07-23T19:26:49.893Z,47.10
2018-07-23T19:29:18.661Z,46.40
2018-07-23T19:31:47.394Z,46.40
2018-07-23T19:34:16.138Z,46.50
2018-07-23T19:39:14.785Z,46.70
2018-07-23T19:41:43.530Z,46.80
2018-07-23T19:49:09.656Z,47.00
2018-07-23T19:51:38.497Z,47.10
2018-07-23T19:54:07.889Z,47.20
2018-07-23T19:59:05.068Z,47.70
2018-07-23T20:01:33.801Z,47.40
2018-07-23T20:04:02.561Z,47.50
2018-07-23T20:06:31.322Z,47.70
2018-07-23T20:11:29.846Z,47.80
2018-07-23T20:13:58.619Z,48.00
2018-07-23T20:16:27.337Z,48.40
2018-07-23T20:18:56.078Z,48.40
2018-07-23T20:23:53.238Z,48.70
2018-07-23T20:26:22.044Z,48.70
2018-07-23T20:28:50.804Z,49.70
2018-07-23T20:31:19.538Z,49.10
2018-07-23T20:33:48.295Z,49.30
2018-07-23T20:36:17.076Z,49.40
2018-07-23T20:38:45.830Z,49.50
2018-07-23T20:41:14.567Z,49.60
2018-07-23T20:46:11.850Z,49.90
2018-07-23T20:51:09.030Z,50.00
2018-07-23T20:53:37.785Z,49.90
2018-07-23T20:56:06.592Z,50.00
2018-07-23T21:01:03.863Z,49.90
2018-07-23T21:06:01.038Z,50.10
2018-07-23T21:08:29.791Z,50.50
2018-07-23T21:10:58.510Z,50.60
2018-07-23T21:13:27.254Z,50.60
2018-07-23T21:15:55.983Z,50.90
2018-07-23T21:18:24.770Z,51.10
2018-07-23T21:20:53.561Z,51.10
2018-07-23T21:23:22.354Z,51.10
2018-07-23T21:25:51.138Z,51.10
2018-07-23T21:30:48.423Z,51.30
2018-07-23T21:33:17.199Z,51.50
2018-07-23T21:35:45.926Z,51.50
2018-07-23T21:38:14.670Z,51.60
2018-07-23T21:40:43.399Z,51.70
2018-07-23T21:43:12.119Z,51.80
2018-07-23T21:45:40.912Z,51.90
2018-07-23T21:48:09.666Z,52.10
2018-07-23T21:50:38.414Z,52.20
2018-07-23T21:53:07.126Z,52.20
2018-07-23T21:55:35.871Z,52.40
2018-07-23T21:58:04.611Z,52.50
2018-07-23T22:00:35.935Z,52.80
2018-07-23T22:03:04.684Z,53.10
2018-07-23T22:08:02.223Z,53.30
2018-07-23T22:10:30.996Z,53.40
2018-07-23T22:12:59.798Z,53.50
2018-07-23T22:15:28.530Z,53.70
2018-07-23T22:17:57.283Z,53.80
2018-07-23T22:20:26.004Z,53.90
2018-07-23T22:22:54.765Z,54.10
2018-07-23T22:25:23.565Z,54.40
2018-07-23T22:27:52.307Z,54.50
2018-07-23T22:30:21.138Z,54.80
2018-07-23T22:32:49.794Z,55.00
2018-07-23T22:35:18.527Z,55.10
2018-07-23T22:37:47.255Z,55.20
2018-07-23T22:40:15.991Z,55.50
2018-07-23T22:42:44.757Z,55.50
2018-07-23T22:45:13.471Z,56.00
2018-07-23T22:47:42.196Z,56.00
2018-07-23T22:50:10.922Z,56.30
2018-07-23T22:52:39.672Z,56.60
2018-07-23T22:57:36.879Z,56.70
2018-07-23T23:00:06.058Z,56.70
2018-07-23T23:02:34.856Z,56.80
2018-07-23T23:05:03.615Z,56.80
2018-07-23T23:12:29.264Z,56.80
2018-07-23T23:17:26.442Z,57.10
2018-07-23T23:19:55.169Z,57.10
2018-07-23T23:22:23.894Z,57.20
2018-07-23T23:27:21.083Z,57.70
2018-07-23T23:29:49.827Z,57.90
2018-07-23T23:32:18.558Z,58.30
2018-07-23T23:34:47.277Z,58.40
2018-07-23T23:37:16.887Z,58.60
2018-07-23T23:39:45.669Z,58.90
2018-07-23T23:42:14.439Z,59.30
2018-07-23T23:44:43.204Z,59.40
2018-07-23T23:49:40.594Z,59.80
2018-07-23T23:52:09.326Z,60.20
2018-07-23T23:54:38.066Z,60.40
2018-07-23T23:57:06.836Z,60.10
2018-07-23T23:59:35.549Z,60.70
